Time;durP1;ratioP1;P1;durP2;ratioP2;P2;SDS_P1;SDS_P2;PMS_P1;PMS_P2;Temp;Humidity;BMP_temperature;BMP_pressure;BME280_temperature;BME280_humidity;BME280_pressure;Samples;Min_cycle;Max_cycle;Signal;HPM_P1;HPM_P2
2022/12/05 00:00:46;;;;;;;84.97;61.13;;;14.40;61.30;;;;;;4994061;28;86925;-52
2022/12/05 00:03:12;;;;;;;84.55;60.83;;;14.40;61.20;;;;;;5001016;28;85698;-54
2022/12/05 00:05:41;;;;;;;86.18;61.83;;;14.40;61.20;;;;;;4993921;28;85764;-51
2022/12/05 00:08:07;;;;;;;84.60;61.30;;;14.40;61.10;;;;;;4990068;28;90200;-53
2022/12/05 00:10:35;;;;;;;84.90;62.22;;;14.40;61.00;;;;;;4994021;28;85942;-53
2022/12/05 00:13:01;;;;;;;83.22;61.38;;;14.40;61.20;;;;;;4987504;28;85997;-51
2022/12/05 00:15:27;;;;;;;83.25;61.60;;;14.30;61.20;;;;;;4989403;28;85660;-51
2022/12/05 00:17:52;;;;;;;85.35;62.15;;;14.40;61.10;;;;;;4977460;28;86106;-53
2022/12/05 00:20:19;;;;;;;85.60;61.70;;;14.30;61.10;;;;;;4995251;28;86159;-52
2022/12/05 00:22:45;;;;;;;85.20;61.53;;;14.40;61.00;;;;;;4989519;28;86373;-51
2022/12/05 00:25:11;;;;;;;83.60;60.92;;;14.30;61.10;;;;;;4996337;28;85834;-51
2022/12/05 00:27:36;;;;;;;86.07;62.63;;;14.30;60.90;;;;;;4983222;28;88938;-53
2022/12/05 00:30:03;;;;;;;83.75;60.83;;;14.30;60.90;;;;;;4994250;28;86175;-50
2022/12/05 00:32:29;;;;;;;84.70;61.65;;;14.30;61.80;;;;;;4982871;28;85138;-53
2022/12/05 00:34:54;;;;;;;84.97;62.30;;;14.30;60.90;;;;;;4995560;28;85864;-53
2022/12/05 00:37:20;;;;;;;85.68;62.50;;;14.30;60.90;;;;;;4973921;28;86841;-51
2022/12/05 00:39:46;;;;;;;84.50;61.45;;;14.30;60.90;;;;;;4992058;28;85788;-50
2022/12/05 00:42:12;;;;;;;86.32;62.33;;;14.30;61.00;;;;;;4990617;28;86015;-51
2022/12/05 00:44:37;;;;;;;86.18;62.30;;;14.20;60.90;;;;;;4992681;28;86376;-51
2022/12/05 00:47:03;;;;;;;85.82;60.67;;;14.20;60.90;;;;;;4997964;28;85517;-52
2022/12/05 00:49:29;;;;;;;83.38;61.25;;;14.20;60.90;;;;;;4988788;28;85081;-52
2022/12/05 00:51:54;;;;;;;83.88;61.13;;;14.20;60.90;;;;;;4996127;28;86395;-51
2022/12/05 00:54:20;;;;;;;84.10;60.83;;;14.20;60.80;;;;;;4990537;28;86617;-50
2022/12/05 00:56:46;;;;;;;84.18;61.30;;;14.20;60.80;;;;;;4993105;28;86007;-51
2022/12/05 00:59:15;;;;;;;83.95;61.67;;;14.20;60.80;;;;;;4998405;28;85625;-51
2022/12/05 01:01:42;;;;;;;84.47;61.17;;;14.20;60.90;;;;;;4995901;28;86854;-53
2022/12/05 01:04:17;;;;;;;85.55;61.13;;;14.20;60.80;;;;;;4980059;28;86615;-50
2022/12/05 01:06:43;;;;;;;84.40;62.10;;;14.10;60.80;;;;;;4995154;28;88163;-54
2022/12/05 01:09:12;;;;;;;83.78;61.20;;;14.10;60.70;;;;;;4994255;28;86130;-53
2022/12/05 01:11:38;;;;;;;85.60;61.35;;;14.10;60.80;;;;;;4991231;28;85752;-51
2022/12/05 01:14:04;;;;;;;84.20;60.97;;;14.10;60.70;;;;;;4991095;28;85337;-55
2022/12/05 01:16:34;;;;;;;87.00;61.90;;;14.10;60.70;;;;;;4989216;28;87009;-50
2022/12/05 01:19:03;;;;;;;84.63;61.08;;;14.10;60.50;;;;;;4990825;28;85986;-53
2022/12/05 01:21:30;;;;;;;84.47;61.17;;;14.00;60.70;;;;;;4989522;28;86369;-52
2022/12/05 01:23:56;;;;;;;82.82;60.47;;;14.00;60.70;;;;;;4971406;28;89759;-53
2022/12/05 01:26:22;;;;;;;84.00;59.88;;;14.00;60.70;;;;;;4993214;28;90994;-53
2022/12/05 01:28:49;;;;;;;84.05;61.60;;;14.00;60.60;;;;;;5001786;28;86099;-54
2022/12/05 01:31:25;;;;;;;83.85;61.17;;;14.00;60.60;;;;;;4992175;28;85871;-52
2022/12/05 01:33:53;;;;;;;83.15;61.40;;;14.00;60.60;;;;;;4987823;28;86684;-54
2022/12/05 01:36:19;;;;;;;82.90;60.25;;;14.00;60.40;;;;;;4981782;28;85867;-52
2022/12/05 01:38:45;;;;;;;85.00;60.85;;;14.00;60.40;;;;;;4984904;28;87334;-51
2022/12/05 01:41:15;;;;;;;87.55;61.40;;;14.00;60.50;;;;;;4996045;28;85388;-56
2022/12/05 01:43:59;;;;;;;83.10;60.53;;;14.00;60.70;;;;;;4992589;28;88256;-51
2022/12/05 01:46:26;;;;;;;84.28;60.38;;;13.90;60.50;;;;;;4994535;28;86295;-52
2022/12/05 01:48:54;;;;;;;86.03;60.55;;;13.90;60.30;;;;;;4993981;27;85491;-53
2022/12/05 01:51:21;;;;;;;83.55;59.88;;;13.90;60.50;;;;;;4991182;28;88759;-54
2022/12/05 01:53:47;;;;;;;83.43;60.90;;;13.90;60.30;;;;;;4996420;28;85883;-53
2022/12/05 01:56:13;;;;;;;85.25;60.78;;;13.90;60.30;;;;;;4997375;28;85570;-55
2022/12/05 01:58:42;;;;;;;82.13;61.25;;;14.00;60.40;;;;;;4996210;28;85732;-55
2022/12/05 02:01:07;;;;;;;83.53;59.88;;;13.90;60.20;;;;;;4988581;28;87193;-54
2022/12/05 02:03:36;;;;;;;84.30;60.85;;;13.90;60.20;;;;;;4994920;28;86024;-50
2022/12/05 02:06:02;;;;;;;83.57;61.10;;;13.90;61.00;;;;;;4995422;28;87147;-56
2022/12/05 02:08:28;;;;;;;82.93;60.17;;;13.90;60.50;;;;;;4999090;28;85572;-54
2022/12/05 02:10:56;;;;;;;84.88;60.92;;;13.90;60.40;;;;;;4997263;28;86222;-51
2022/12/05 02:13:26;;;;;;;86.25;61.40;;;13.90;60.40;;;;;;4998759;28;86560;-56
2022/12/05 02:16:13;;;;;;;83.93;59.85;;;13.80;60.40;;;;;;4993557;28;85543;-50
2022/12/05 02:18:48;;;;;;;87.18;60.75;;;13.80;60.30;;;;;;5001140;28;85808;-53
2022/12/05 02:21:37;;;;;;;84.03;61.05;;;13.80;60.30;;;;;;4985412;28;85822;-54
2022/12/05 02:24:17;;;;;;;86.30;60.38;;;13.80;60.30;;;;;;4997368;28;85886;-54
2022/12/05 02:26:48;;;;;;;82.65;60.78;;;13.80;60.40;;;;;;4995143;27;85680;-54
2022/12/05 02:29:52;;;;;;;87.78;61.85;;;13.80;60.30;;;;;;5002948;28;85715;-54
2022/12/05 02:32:30;;;;;;;80.78;60.25;;;13.70;60.30;;;;;;4985432;28;85187;-54
2022/12/05 02:35:25;;;;;;;83.38;60.55;;;13.70;60.30;;;;;;4995437;28;86375;-55
2022/12/05 02:38:01;;;;;;;83.95;61.28;;;13.70;60.20;;;;;;4946878;28;85688;-53
2022/12/05 02:40:40;;;;;;;83.78;61.10;;;13.70;60.20;;;;;;4991646;28;86021;-55
2022/12/05 02:43:14;;;;;;;84.57;60.83;;;13.70;60.10;;;;;;4984927;28;86065;-54
2022/12/05 02:45:41;;;;;;;86.43;61.70;;;13.70;60.00;;;;;;4989735;28;86056;-55
2022/12/05 02:48:09;;;;;;;84.55;60.03;;;13.70;60.30;;;;;;4986526;28;86105;-54
2022/12/05 02:50:37;;;;;;;87.75;62.03;;;13.70;60.30;;;;;;4995000;27;85804;-55
2022/12/05 02:53:09;;;;;;;84.68;60.83;;;13.70;60.30;;;;;;4984229;28;89667;-51
2022/12/05 02:55:37;;;;;;;83.95;60.97;;;13.70;60.40;;;;;;4988041;27;85801;-52
2022/12/05 02:58:07;;;;;;;85.07;61.33;;;13.60;60.30;;;;;;4984887;28;86711;-54
2022/12/05 03:00:37;;;;;;;83.53;61.07;;;13.70;60.10;;;;;;4988976;28;89709;-53
2022/12/05 03:03:15;;;;;;;84.25;60.08;;;13.70;60.00;;;;;;4995683;28;86003;-56
2022/12/05 03:06:03;;;;;;;84.90;61.67;;;13.60;60.00;;;;;;4989936;27;86321;-51
2022/12/05 03:08:36;;;;;;;86.25;62.13;;;13.70;60.10;;;;;;4986184;28;85409;-53
2022/12/05 03:11:02;;;;;;;84.88;60.83;;;13.60;60.00;;;;;;4994545;28;85950;-53
2022/12/05 03:13:39;;;;;;;84.78;60.35;;;13.60;59.90;;;;;;4989290;28;86445;-56
2022/12/05 03:16:13;;;;;;;85.60;60.72;;;13.60;60.00;;;;;;4987975;28;86997;-54
2022/12/05 03:18:50;;;;;;;86.38;60.75;;;13.60;60.10;;;;;;4988992;28;86286;-55
2022/12/05 03:21:34;;;;;;;81.93;59.88;;;13.60;60.10;;;;;;4992858;27;86354;-54
2022/12/05 03:24:08;;;;;;;86.43;60.53;;;13.60;59.90;;;;;;4988422;28;89867;-53
2022/12/05 03:26:36;;;;;;;85.00;60.20;;;13.50;60.00;;;;;;4992752;28;86788;-55
2022/12/05 03:29:14;;;;;;;88.07;59.95;;;13.50;60.00;;;;;;4988662;28;85998;-53
2022/12/05 03:32:09;;;;;;;84.47;59.28;;;13.60;59.90;;;;;;4993070;28;85854;-55
2022/12/05 03:35:05;;;;;;;83.95;60.47;;;13.50;60.00;;;;;;4978434;28;88631;-56
2022/12/05 03:37:46;;;;;;;84.10;60.17;;;13.50;59.90;;;;;;4985007;28;86567;-51
2022/12/05 03:40:50;;;;;;;82.80;59.40;;;13.50;59.90;;;;;;4986923;28;88048;-53
2022/12/05 03:43:43;;;;;;;83.82;59.90;;;13.50;59.80;;;;;;4984433;28;85534;-56
2022/12/05 03:46:38;;;;;;;84.88;60.30;;;13.50;59.90;;;;;;4994013;28;87072;-53
2022/12/05 03:49:15;;;;;;;82.30;58.95;;;13.40;60.00;;;;;;4978754;28;86803;-55
2022/12/05 03:51:51;;;;;;;86.57;60.05;;;13.50;60.00;;;;;;4993227;28;86172;-55
2022/12/05 03:54:32;;;;;;;86.07;60.63;;;13.50;60.00;;;;;;4989305;28;85670;-55
2022/12/05 03:57:26;;;;;;;84.90;60.33;;;13.40;59.90;;;;;;4987635;28;87029;-53
2022/12/05 04:00:11;;;;;;;86.97;60.53;;;13.50;60.00;;;;;;4992553;28;86885;-56
2022/12/05 04:02:49;;;;;;;85.68;60.80;;;13.40;59.90;;;;;;4993702;28;85760;-52
2022/12/05 04:05:25;;;;;;;85.25;59.75;;;13.50;59.90;;;;;;4987668;28;87667;-53
2022/12/05 04:08:01;;;;;;;85.47;61.47;;;13.40;59.80;;;;;;4994907;28;85829;-51
2022/12/05 04:10:30;;;;;;;84.32;59.60;;;13.40;59.90;;;;;;4982459;28;85830;-57
2022/12/05 04:13:16;;;;;;;81.40;59.35;;;13.40;59.90;;;;;;4984839;28;86182;-53
2022/12/05 04:18:33;;;;;;;83.40;60.05;;;13.40;59.70;;;;;;4990082;28;85689;-51
2022/12/05 04:25:31;;;;;;;84.13;59.63;;;13.40;59.80;;;;;;4984995;28;86067;-54
2022/12/05 04:26:35;;;;;;;85.60;59.72;;;13.40;59.80;;;;;;5001291;28;85735;-52
2022/12/05 04:29:18;;;;;;;83.63;59.38;;;13.40;60.50;;;;;;4987004;28;88241;-52
2022/12/05 04:31:47;;;;;;;84.45;60.05;;;13.40;59.90;;;;;;4985800;28;85672;-54
2022/12/05 04:34:16;;;;;;;82.03;59.65;;;13.30;59.90;;;;;;4990687;28;86342;-53
2022/12/05 04:36:50;;;;;;;81.95;59.47;;;13.30;59.90;;;;;;4991747;28;85802;-54
2022/12/05 04:39:21;;;;;;;85.90;59.97;;;13.30;59.80;;;;;;4978763;28;85689;-55
2022/12/05 04:41:58;;;;;;;83.97;59.40;;;13.30;59.80;;;;;;4997644;28;86422;-52
2022/12/05 04:44:33;;;;;;;82.10;59.15;;;13.30;59.70;;;;;;4999478;28;86099;-53
2022/12/05 04:47:02;;;;;;;85.65;60.95;;;13.40;59.70;;;;;;4984741;28;85513;-54
2022/12/05 04:49:30;;;;;;;80.65;59.40;;;13.30;59.80;;;;;;4995943;28;85337;-52
2022/12/05 04:52:00;;;;;;;81.75;58.88;;;13.30;59.80;;;;;;4986650;28;87914;-55
2022/12/05 04:54:50;;;;;;;84.35;59.92;;;13.40;59.70;;;;;;4990094;28;85679;-55
2022/12/05 04:57:25;;;;;;;83.45;60.17;;;13.30;59.80;;;;;;4975237;28;87347;-54
2022/12/05 04:59:51;;;;;;;82.85;59.58;;;13.30;59.60;;;;;;4992184;28;88890;-52
2022/12/05 05:02:26;;;;;;;80.40;59.05;;;13.30;59.70;;;;;;4987471;28;86286;-52
2022/12/05 05:04:54;;;;;;;83.95;59.38;;;13.30;59.80;;;;;;4999011;28;86924;-50
2022/12/05 05:07:19;;;;;;;82.35;59.17;;;13.30;59.80;;;;;;4983329;28;85745;-54
2022/12/05 05:09:45;;;;;;;83.22;59.90;;;13.30;59.80;;;;;;4994863;28;86259;-56
2022/12/05 05:12:12;;;;;;;82.95;59.28;;;13.20;60.50;;;;;;4989882;28;86300;-53
2022/12/05 05:14:38;;;;;;;83.65;59.10;;;13.30;59.90;;;;;;5000264;28;85763;-52
2022/12/05 05:17:03;;;;;;;81.50;58.97;;;13.20;59.90;;;;;;4982007;28;86345;-53
2022/12/05 05:19:29;;;;;;;82.93;59.05;;;13.20;59.80;;;;;;4990436;28;87615;-51
2022/12/05 05:21:55;;;;;;;82.25;58.65;;;13.20;59.90;;;;;;4988388;28;86116;-53
2022/12/05 05:24:22;;;;;;;84.20;58.92;;;13.20;59.80;;;;;;4997455;28;85908;-49
2022/12/05 05:26:48;;;;;;;84.68;59.70;;;13.20;59.90;;;;;;4995370;28;86461;-50
2022/12/05 05:29:15;;;;;;;83.72;59.70;;;13.20;59.90;;;;;;4990368;28;85776;-52
2022/12/05 05:31:41;;;;;;;85.43;59.42;;;13.20;59.90;;;;;;4991235;28;86504;-52
2022/12/05 05:34:08;;;;;;;84.60;58.35;;;13.20;59.90;;;;;;4996808;28;85364;-52
2022/12/05 05:36:34;;;;;;;81.75;58.85;;;13.20;59.90;;;;;;4987502;27;88402;-51
2022/12/05 05:39:01;;;;;;;85.72;60.33;;;13.20;59.80;;;;;;4987779;28;85885;-49
2022/12/05 05:41:32;;;;;;;82.70;59.28;;;13.20;59.90;;;;;;4998449;28;86267;-50
2022/12/05 05:43:58;;;;;;;;;;;13.20;59.80;;;;;;4981451;28;91185;-51
2022/12/05 05:46:29;;;;;;;83.15;59.40;;;13.10;59.80;;;;;;4998943;28;85540;-52
2022/12/05 05:48:55;;;;;;;82.53;59.42;;;13.10;59.60;;;;;;4988857;28;86194;-51
2022/12/05 05:51:22;;;;;;;82.72;59.75;;;13.10;60.20;;;;;;5000127;28;86225;-49
2022/12/05 05:53:48;;;;;;;83.55;59.88;;;13.10;60.20;;;;;;4996912;28;86051;-55
2022/12/05 05:56:17;;;;;;;82.28;59.53;;;13.10;60.20;;;;;;4999345;28;86135;-50
2022/12/05 05:58:43;;;;;;;88.03;59.75;;;13.10;60.60;;;;;;4987063;28;86751;-54
2022/12/05 06:01:21;;;;;;;88.90;59.95;;;13.10;60.70;;;;;;4987224;28;86984;-52
2022/12/05 06:03:47;;;;;;;88.55;58.50;;;13.00;61.10;;;;;;4994178;28;88400;-53
2022/12/05 06:06:14;;;;;;;87.38;59.47;;;12.90;61.20;;;;;;4999108;28;85874;-55
2022/12/05 06:08:41;;;;;;;86.28;60.40;;;13.00;61.20;;;;;;4995760;28;86078;-52
2022/12/05 06:11:13;;;;;;;85.55;58.75;;;13.10;61.30;;;;;;4993094;28;86406;-52
2022/12/05 06:13:41;;;;;;;;;;;13.20;61.10;;;;;;4994630;28;85898;-55
2022/12/05 06:16:09;;;;;;;81.07;57.40;;;13.20;60.80;;;;;;4988968;28;84888;-51
2022/12/05 06:18:35;;;;;;;81.45;58.28;;;13.40;60.70;;;;;;4997062;28;87659;-52
2022/12/05 06:21:01;;;;;;;81.38;58.00;;;13.40;60.60;;;;;;4994571;28;85926;-53
2022/12/05 06:23:27;;;;;;;84.55;59.10;;;13.50;60.40;;;;;;4986646;28;90001;-53
2022/12/05 06:25:54;;;;;;;84.03;58.22;;;13.50;60.10;;;;;;4989775;28;86444;-50
2022/12/05 06:28:22;;;;;;;84.70;58.17;;;13.50;60.30;;;;;;4984671;28;87459;-53
2022/12/05 06:30:47;;;;;;;84.38;57.50;;;13.40;60.40;;;;;;4994138;28;85848;-49
2022/12/05 06:33:13;;;;;;;83.25;58.75;;;13.30;61.10;;;;;;4994882;28;85938;-53
2022/12/05 06:35:40;;;;;;;83.97;58.25;;;13.30;61.40;;;;;;4987106;28;87383;-51
2022/12/05 06:38:06;;;;;;;84.13;57.55;;;13.30;61.60;;;;;;4980954;28;86734;-51
2022/12/05 06:40:32;;;;;;;83.53;58.85;;;13.30;61.90;;;;;;4964237;28;86496;-52
2022/12/05 06:42:58;;;;;;;86.25;58.25;;;13.40;62.30;;;;;;4986942;28;86474;-53
2022/12/05 06:45:24;;;;;;;84.78;58.45;;;13.40;62.60;;;;;;4986520;28;88678;-53
2022/12/05 06:47:51;;;;;;;81.55;58.20;;;13.40;62.80;;;;;;4984582;28;85615;-55
2022/12/05 06:50:17;;;;;;;82.00;57.38;;;13.40;62.90;;;;;;4975916;28;87756;-49
2022/12/05 06:52:42;;;;;;;80.53;58.05;;;13.40;63.20;;;;;;4989029;28;86119;-51
2022/12/05 06:55:08;;;;;;;83.65;57.97;;;13.40;63.10;;;;;;4984274;28;85993;-53
2022/12/05 06:57:34;;;;;;;83.93;58.15;;;13.50;63.10;;;;;;4987613;28;86752;-49
2022/12/05 07:02:44;;;;;;;82.55;57.30;;;13.50;62.70;;;;;;4995516;28;85361;-51
2022/12/05 07:05:10;;;;;;;81.22;58.00;;;13.50;62.70;;;;;;4984767;28;87074;-53
2022/12/05 07:07:36;;;;;;;82.93;57.33;;;13.50;62.50;;;;;;4991057;28;88466;-52
2022/12/05 07:10:04;;;;;;;81.30;57.10;;;13.50;62.50;;;;;;4990527;28;85849;-50
2022/12/05 07:12:31;;;;;;;84.47;58.50;;;13.50;62.40;;;;;;4971270;28;89037;-50
2022/12/05 07:14:57;;;;;;;87.07;60.33;;;13.50;62.90;;;;;;4981122;28;86956;-48
2022/12/05 07:17:23;;;;;;;86.50;60.33;;;13.50;62.40;;;;;;4988752;28;86048;-52
2022/12/05 07:19:50;;;;;;;85.50;58.38;;;13.50;62.30;;;;;;4973478;28;87016;-48
2022/12/05 07:22:21;;;;;;;82.95;59.33;;;13.50;62.40;;;;;;4977389;28;86807;-51
2022/12/05 07:24:46;;;;;;;83.78;57.20;;;13.50;62.50;;;;;;4989785;27;86010;-49
2022/12/05 07:27:13;;;;;;;82.93;58.60;;;13.70;62.40;;;;;;4978406;28;85653;-49
2022/12/05 07:29:39;;;;;;;83.25;57.72;;;13.80;61.70;;;;;;4984479;28;88983;-48
2022/12/05 07:32:05;;;;;;;81.72;58.65;;;13.90;61.40;;;;;;4979932;28;87657;-53
2022/12/05 07:34:31;;;;;;;82.70;57.40;;;14.00;61.20;;;;;;4980733;28;85166;-52
2022/12/05 07:36:56;;;;;;;85.28;58.53;;;14.00;61.20;;;;;;4983752;28;85916;-48
2022/12/05 07:39:22;;;;;;;84.75;57.97;;;14.00;60.80;;;;;;4980015;28;85733;-50
2022/12/05 07:41:48;;;;;;;79.72;57.05;;;14.00;60.70;;;;;;4986333;28;85806;-52
2022/12/05 07:44:13;;;;;;;82.05;57.55;;;14.10;60.90;;;;;;4980775;28;87276;-53
2022/12/05 07:46:39;;;;;;;79.20;56.85;;;14.10;60.80;;;;;;4986678;28;87096;-53
2022/12/05 07:49:06;;;;;;;85.25;57.70;;;14.10;60.70;;;;;;4982955;28;85818;-52
2022/12/05 07:51:32;;;;;;;81.38;57.72;;;14.20;60.80;;;;;;4980632;28;86126;-52
2022/12/05 07:53:58;;;;;;;79.22;56.72;;;14.20;60.40;;;;;;4990562;27;85398;-54
2022/12/05 07:56:24;;;;;;;80.13;57.20;;;14.20;60.30;;;;;;4977465;28;87645;-55
2022/12/05 07:58:52;;;;;;;78.05;56.97;;;14.20;60.20;;;;;;4981346;28;86047;-56
2022/12/05 08:01:28;;;;;;;81.95;56.65;;;14.20;60.00;;;;;;4981715;28;91408;-54
2022/12/05 08:03:57;;;;;;;79.80;58.42;;;14.20;59.90;;;;;;4987769;28;85620;-53
2022/12/05 08:06:28;;;;;;;81.47;58.47;;;14.30;59.90;;;;;;4984341;28;85773;-56
2022/12/05 08:08:54;;;;;;;83.77;58.90;;;14.30;59.80;;;;;;4983631;28;85754;-51
2022/12/05 08:11:23;;;;;;;82.70;58.42;;;14.30;60.00;;;;;;4986022;28;88616;-54
2022/12/05 08:13:49;;;;;;;79.13;57.83;;;14.30;59.80;;;;;;4998093;28;87027;-52
2022/12/05 08:16:18;;;;;;;81.72;57.78;;;14.30;59.50;;;;;;4975660;28;85820;-51
2022/12/05 08:18:44;;;;;;;83.55;59.22;;;14.30;59.30;;;;;;4987039;28;87634;-55
2022/12/05 08:21:13;;;;;;;83.95;57.70;;;14.40;59.40;;;;;;4982193;28;89942;-55
2022/12/05 08:23:39;;;;;;;81.75;57.83;;;14.30;59.10;;;;;;4979299;28;89596;-51
2022/12/05 08:26:16;;;;;;;80.97;57.35;;;14.30;59.10;;;;;;4982104;28;87632;-52
2022/12/05 08:28:42;;;;;;;79.50;57.15;;;14.30;59.10;;;;;;4980703;28;85692;-51
2022/12/05 08:31:16;;;;;;;79.72;56.95;;;14.30;59.00;;;;;;4984572;28;85957;-57
2022/12/05 08:33:43;;;;;;;80.97;57.00;;;14.40;59.20;;;;;;4982187;28;86065;-50
2022/12/05 08:36:15;;;;;;;83.68;57.38;;;14.40;59.20;;;;;;4980695;28;87404;-51
2022/12/05 08:38:42;;;;;;;82.20;56.97;;;14.40;59.30;;;;;;4986329;28;86268;-49
2022/12/05 08:41:10;;;;;;;83.57;57.58;;;14.50;59.30;;;;;;4992634;28;87029;-53
2022/12/05 08:43:36;;;;;;;78.80;57.00;;;14.50;59.20;;;;;;4982407;28;87166;-53
2022/12/05 08:46:02;;;;;;;80.53;56.92;;;14.40;59.10;;;;;;4994544;28;86986;-52
2022/12/05 08:48:29;;;;;;;79.15;57.25;;;14.40;59.20;;;;;;4989076;28;85833;-48
2022/12/05 08:50:55;;;;;;;81.07;57.08;;;14.50;59.30;;;;;;4991382;28;86304;-53
2022/12/05 08:53:21;;;;;;;82.05;57.17;;;14.50;59.60;;;;;;4988335;28;86014;-57
2022/12/05 08:55:46;;;;;;;82.50;57.97;;;14.50;59.50;;;;;;4988686;28;86349;-50
2022/12/05 08:58:12;;;;;;;81.32;57.97;;;14.60;59.70;;;;;;4983132;28;87363;-49
2022/12/05 09:00:39;;;;;;;80.47;57.10;;;14.50;59.10;;;;;;4991045;28;85824;-50
2022/12/05 09:03:05;;;;;;;77.50;56.40;;;14.60;59.30;;;;;;4987883;28;87624;-50
2022/12/05 09:05:30;;;;;;;80.85;56.72;;;14.50;59.10;;;;;;4982643;28;85618;-52
2022/12/05 09:07:58;;;;;;;81.35;58.30;;;14.60;59.20;;;;;;4976489;28;86501;-50
2022/12/05 09:10:24;;;;;;;81.68;57.83;;;14.50;59.80;;;;;;4955511;28;87504;-52
2022/12/05 09:12:50;;;;;;;78.20;56.47;;;14.50;59.40;;;;;;4940688;27;87452;-52
2022/12/05 09:15:16;;;;;;;79.57;57.40;;;14.50;59.30;;;;;;4946615;28;87303;-55
2022/12/05 09:17:42;;;;;;;79.90;58.35;;;14.50;59.00;;;;;;4953951;28;88596;-56
2022/12/05 09:20:10;;;;;;;81.45;57.47;;;14.60;59.10;;;;;;4951312;28;88130;-53
2022/12/05 09:22:36;;;;;;;87.05;62.50;;;14.60;59.10;;;;;;4946828;28;92499;-54
2022/12/05 09:25:03;;;;;;;87.05;62.25;;;14.50;58.90;;;;;;4949099;28;91423;-48
2022/12/05 09:27:29;;;;;;;84.50;61.35;;;14.50;59.00;;;;;;4961505;28;86155;-54
2022/12/05 09:29:55;;;;;;;82.25;60.35;;;14.50;58.80;;;;;;4955932;28;87256;-49
2022/12/05 09:32:21;;;;;;;83.25;59.83;;;14.60;58.90;;;;;;4956025;28;86239;-53
2022/12/05 09:34:46;;;;;;;83.32;59.85;;;14.60;58.90;;;;;;4949730;28;88512;-54
2022/12/05 09:37:12;;;;;;;81.07;58.92;;;14.60;58.80;;;;;;4974535;28;88694;-54
2022/12/05 09:39:38;;;;;;;81.05;59.03;;;14.60;58.80;;;;;;4974646;28;86822;-54
2022/12/05 09:43:20;;;;;;;84.57;60.10;;;14.60;58.80;;;;;;4982343;28;88457;-52
2022/12/05 09:45:58;;;;;;;81.55;58.33;;;14.70;58.90;;;;;;4898545;28;86483;-53
2022/12/05 09:48:24;;;;;;;80.13;58.08;;;14.70;58.80;;;;;;4894554;28;87020;-53
2022/12/05 09:50:56;;;;;;;83.07;58.90;;;14.70;58.70;;;;;;4943098;28;88608;-58
2022/12/05 09:53:31;;;;;;;82.22;58.80;;;14.70;58.80;;;;;;4987425;28;88113;-51
2022/12/05 09:56:18;;;;;;;79.40;58.28;;;14.70;59.00;;;;;;4984025;28;87673;-49
2022/12/05 09:58:50;;;;;;;81.60;58.70;;;14.70;58.60;;;;;;4983823;28;87745;-52
2022/12/05 10:01:21;;;;;;;82.13;57.60;;;14.70;58.60;;;;;;4983657;28;85544;-52
2022/12/05 10:04:26;;;;;;;82.78;58.65;;;14.70;58.60;;;;;;4992132;28;86361;-51
2022/12/05 10:07:13;;;;;;;82.50;59.03;;;14.70;58.60;;;;;;4996266;28;86248;-51
2022/12/05 10:09:57;;;;;;;82.03;58.75;;;14.70;58.70;;;;;;4989314;28;86682;-51
2022/12/05 10:13:02;;;;;;;81.65;58.17;;;14.70;58.50;;;;;;4994745;28;86850;-54
2022/12/05 10:15:42;;;;;;;82.65;58.33;;;14.70;58.40;;;;;;4990721;28;90398;-53
2022/12/05 10:18:20;;;;;;;82.60;58.80;;;14.70;58.50;;;;;;4992149;28;87546;-51
2022/12/05 10:20:56;;;;;;;80.53;58.08;;;14.70;58.50;;;;;;4990297;28;85877;-49
2022/12/05 10:23:40;;;;;;;82.47;58.67;;;14.70;58.60;;;;;;4991014;28;86991;-50
2022/12/05 10:26:09;;;;;;;82.63;57.90;;;14.70;58.90;;;;;;4989766;28;86392;-50
2022/12/05 10:29:01;;;;;;;84.18;58.75;;;14.70;59.10;;;;;;4990115;28;88926;-59
2022/12/05 10:31:33;;;;;;;80.60;58.88;;;14.70;59.00;;;;;;4983367;28;85694;-50
2022/12/05 10:34:39;;;;;;;84.57;58.60;;;14.70;59.10;;;;;;4984200;28;87579;-56
2022/12/05 10:37:14;;;;;;;84.50;58.65;;;14.70;59.40;;;;;;4980245;28;92139;-52
2022/12/05 10:39:40;;;;;;;82.75;58.50;;;14.70;59.30;;;;;;4982685;27;85704;-51
2022/12/05 10:42:12;;;;;;;82.35;59.42;;;14.70;59.30;;;;;;4977403;28;87340;-52
2022/12/05 10:44:38;;;;;;;83.65;59.35;;;14.70;59.10;;;;;;4978448;28;87697;-50
2022/12/05 10:47:05;;;;;;;80.55;58.33;;;14.70;59.00;;;;;;4971633;28;87875;-54
2022/12/05 10:49:33;;;;;;;82.70;58.47;;;14.70;59.10;;;;;;4962632;28;85769;-52
2022/12/05 10:51:59;;;;;;;83.15;58.00;;;14.70;59.10;;;;;;4976206;28;86482;-55
2022/12/05 10:54:29;;;;;;;83.78;59.47;;;14.70;59.10;;;;;;4981106;28;88822;-51
2022/12/05 10:56:55;;;;;;;82.72;58.60;;;14.80;59.10;;;;;;4970036;28;86387;-53
2022/12/05 10:59:24;;;;;;;81.22;58.40;;;14.80;58.60;;;;;;4979215;28;85527;-53
2022/12/05 11:01:56;;;;;;;81.20;58.40;;;14.80;58.90;;;;;;4986280;28;86867;-52
2022/12/05 11:04:24;;;;;;;81.63;58.53;;;14.80;58.80;;;;;;4985549;28;85480;-52
2022/12/05 11:07:01;;;;;;;82.78;59.25;;;14.90;58.80;;;;;;4978258;27;86198;-50
2022/12/05 11:09:31;;;;;;;79.97;58.17;;;14.90;58.70;;;;;;4978297;28;87566;-54
2022/12/05 11:12:20;;;;;;;81.15;58.03;;;14.80;58.80;;;;;;4977707;28;86431;-54
2022/12/05 11:14:59;;;;;;;80.75;58.42;;;14.80;58.60;;;;;;4966353;28;91680;-53
2022/12/05 11:17:32;;;;;;;82.30;58.78;;;14.90;58.70;;;;;;4975201;28;85888;-50
2022/12/05 11:19:57;;;;;;;82.53;59.30;;;14.90;58.70;;;;;;4975141;28;85770;-50
2022/12/05 11:22:32;;;;;;;83.03;58.85;;;14.90;58.60;;;;;;4980427;28;89200;-56
2022/12/05 11:24:57;;;;;;;81.22;59.00;;;14.90;58.70;;;;;;4981503;28;88795;-55
2022/12/05 11:27:31;;;;;;;86.80;59.28;;;14.90;58.90;;;;;;4979533;28;86746;-49
2022/12/05 11:30:18;;;;;;;82.75;58.92;;;14.90;58.90;;;;;;4983067;28;85923;-53
2022/12/05 11:32:43;;;;;;;85.70;59.13;;;14.90;58.60;;;;;;4984942;28;85664;-53
2022/12/05 11:35:12;;;;;;;83.82;58.95;;;15.00;58.50;;;;;;4976960;28;87604;-50
2022/12/05 11:37:43;;;;;;;82.90;58.42;;;14.90;58.50;;;;;;4982612;28;86078;-50
2022/12/05 11:40:20;;;;;;;80.80;58.88;;;14.90;58.60;;;;;;4978824;28;90315;-53
2022/12/05 11:43:13;;;;;;;85.05;58.88;;;14.90;58.60;;;;;;4980338;28;88302;-52
2022/12/05 11:45:49;;;;;;;86.10;59.42;;;14.80;58.80;;;;;;4977830;28;89217;-52
2022/12/05 11:48:32;;;;;;;83.22;59.25;;;14.90;59.00;;;;;;4986398;28;85357;-51
2022/12/05 11:51:10;;;;;;;84.22;58.67;;;14.90;59.20;;;;;;4979673;28;87777;-54
2022/12/05 11:54:00;;;;;;;81.85;58.78;;;14.90;59.30;;;;;;4978636;28;90697;-49
2022/12/05 11:56:35;;;;;;;87.90;60.08;;;14.90;59.40;;;;;;4983938;28;89748;-50
2022/12/05 11:59:37;;;;;;;84.40;59.20;;;14.90;59.40;;;;;;4984055;28;85782;-56
2022/12/05 12:02:31;;;;;;;84.40;58.10;;;14.90;59.80;;;;;;4980757;28;88416;-53
2022/12/05 12:05:11;;;;;;;85.90;60.15;;;15.00;59.00;;;;;;4983031;28;85548;-50
2022/12/05 12:08:04;;;;;;;86.32;59.65;;;15.00;58.60;;;;;;4983723;28;85970;-52
2022/12/05 12:10:47;;;;;;;86.78;59.67;;;14.90;58.90;;;;;;4977547;28;86910;-52
2022/12/05 12:13:49;;;;;;;84.35;59.05;;;15.00;59.00;;;;;;4979980;28;86491;-56
2022/12/05 12:16:25;;;;;;;84.70;59.90;;;15.30;59.20;;;;;;4980617;28;85870;-53
2022/12/05 12:18:53;;;;;;;84.10;58.97;;;15.60;58.70;;;;;;4983650;28;85636;-54
2022/12/05 12:21:40;;;;;;;88.10;60.00;;;15.80;58.60;;;;;;4975849;28;89478;-50
2022/12/05 12:24:14;;;;;;;86.07;59.55;;;15.80;58.60;;;;;;4970352;28;91992;-51
2022/12/05 12:26:44;;;;;;;85.15;59.55;;;15.90;58.80;;;;;;4977185;28;86243;-49
2022/12/05 12:29:12;;;;;;;85.05;59.38;;;15.90;59.00;;;;;;4982222;28;86291;-53
2022/12/05 12:31:57;;;;;;;86.18;59.63;;;15.90;59.20;;;;;;4982897;28;86956;-52
2022/12/05 12:34:44;;;;;;;86.00;58.75;;;15.90;59.60;;;;;;4990002;28;90892;-53
2022/12/05 12:37:13;;;;;;;83.53;59.10;;;15.80;59.90;;;;;;4976612;28;88499;-53
2022/12/05 12:40:03;;;;;;;89.25;60.67;;;15.80;60.20;;;;;;4978784;28;87063;-53
2022/12/05 12:43:06;;;;;;;86.35;59.97;;;15.80;60.60;;;;;;4982388;28;85485;-51
2022/12/05 12:45:46;;;;;;;87.88;61.53;;;15.80;61.00;;;;;;4917059;28;87417;-52
2022/12/05 12:48:45;;;;;;;88.50;60.80;;;15.80;60.70;;;;;;4980654;28;89668;-55
2022/12/05 12:51:12;;;;;;;89.28;62.97;;;15.70;61.00;;;;;;4969428;28;88183;-53
2022/12/05 12:54:01;;;;;;;88.47;60.08;;;15.80;61.10;;;;;;4983908;28;86373;-56
2022/12/05 12:56:46;;;;;;;87.30;61.10;;;15.80;61.00;;;;;;4979122;28;87402;-52
2022/12/05 12:59:33;;;;;;;86.95;59.83;;;15.80;61.20;;;;;;4979322;28;88037;-53
2022/12/05 13:02:21;;;;;;;82.75;59.47;;;15.70;61.50;;;;;;4976313;28;88204;-51